This is the latest recevied weather packets stored in our database for station/object N4DWK. If no packets are shown the sender has not sent any weather packets the latest 10 day(s).
| Time | Temp. | Humidity | Pressure | Rain* | Wind** | Luminosity | Snow |
|---|---|---|---|---|---|---|---|
| 1777512907 | 18.33° C | 89% | 1008.1 hPa | 0 mm | - | 0 W/m² | - |
| 1777512606 | 18.33° C | 89% | 1008 hPa | 0 mm | - | 0 W/m² | - |
| 1777512306 | 18.33° C | 88% | 1008 hPa | 0 mm | - | 0 W/m² | - |
| 1777512007 | 18.33° C | 88% | 1007.9 hPa | 0 mm | - | 0 W/m² | - |
| 1777511705 | 18.33° C | 88% | 1008 hPa | 0 mm | - | 0 W/m² | - |
| 1777511406 | 18.33° C | 88% | 1007.9 hPa | 0 mm | - | 0 W/m² | - |
| 1777510206 | 18.33° C | 88% | 1007.7 hPa | 0 mm | - | 0 W/m² | - |
| 1777509306 | 18.33° C | 87% | 1007.7 hPa | 0 mm | - | 0 W/m² | - |
| 1777509006 | 18.33° C | 87% | 1007.7 hPa | 0 mm | - | 0 W/m² | - |
| 1777508706 | 18.33° C | 87% | 1007.5 hPa | 0 mm | - | 0 W/m² | - |
| 1777508406 | 18.89° C | 86% | 1007.6 hPa | 0 mm | - | 0 W/m² | - |
| 1777507806 | 18.89° C | 86% | 1007.7 hPa | 0 mm | - | 0 W/m² | - |
| 1777507506 | 18.89° C | 86% | 1007.8 hPa | 0 mm | - | 0 W/m² | - |
| 1777503006 | 19.44° C | 83% | 1007.8 hPa | 0 mm | - | 11 W/m² | - |
| 1777496406 | 20° C | 78% | 1008.3 hPa | 0 mm | - | 63 W/m² | - |
| 1777495806 | 20° C | 77% | 1008.7 hPa | 0 mm | - | 25 W/m² | - |
| 1777495506 | 20° C | 77% | 1008.7 hPa | 0 mm | - | 33 W/m² | - |
| 1777489206 | 20° C | 76% | 1010.6 hPa | 0 mm | - | 100 W/m² | - |
| 1777485006 | 18.89° C | 79% | 1011.9 hPa | 0 mm | - | 135 W/m² | - |
| 1777480505 | 17.78° C | 81% | 1012.7 hPa | 0 mm | - | 79 W/m² | - |
| 1777479905 | 17.78° C | 81% | 1012.9 hPa | 0 mm | - | 76 W/m² | - |
| 1777468504 | 13.33° C | 88% | 1015.1 hPa | 0 mm | - | 46 W/m² | - |
| 1777467905 | 13.33° C | 88% | 1015.5 hPa | 0 mm | - | 33 W/m² | - |
| 1777466405 | 12.78° C | 89% | 1015.2 hPa | 0 mm | - | 37 W/m² | - |
| 1777465804 | 12.22° C | 88% | 1015.4 hPa | 0 mm | - | 30 W/m² | - |
* Rain latest hour (hover to see other rain measurements)
** Current wind speed in m/s (hover to see current wind gust speed)